Time Latitude Longitude Accuracy (66% radius in meters) Altitude (meters) Speed (km/hour) Bearing (degrees) Battery (%) GPS flag
10:53:23 51.753755 39.189528 6 177.29159496915 0 265.42132568359 72 1 delete
10:53:11 51.753755 39.189528 8 177.58972622932 0 265.42132568359 72 1 delete
10:52:59 51.753755 39.189528 8 177.92641503811 0 265.42132568359 72 1 delete
10:52:47 51.753755 39.189528 8 178.30140569376 0 265.42132568359 72 1 delete
10:52:35 51.753755 39.189528 8 178.45834867158 0 265.42132568359 72 1 delete
10:52:23 51.753755 39.189528 8 178.3060505037 0 265.42132568359 72 1 delete
10:52:11 51.753755 39.189528 16 178.1862751693 0 265.42132568359 72 1 delete
10:51:59 51.753755 39.189528 6 178.06698654002 0 265.42132568359 72 1 delete
10:51:50 51.753755 39.189528 12 178.06570447034 0 265.42132568359 72 1 delete
10:51:38 51.753755 39.189528 8 178.41776662055 0 265.42132568359 72 1 delete
10:51:26 51.753755 39.189528 16 178.8149840154 0 265.42132568359 72 1 delete
10:51:14 51.753755 39.189528 12 179.50198956919 0 265.42132568359 72 1 delete
10:51:02 51.753755 39.189528 8 180.04774349238 0 265.42132568359 72 1 delete
10:50:50 51.753755 39.189528 6 180.17708330745 0 265.42132568359 72 1 delete
10:50:38 51.753755 39.189528 12 180.21115571347 0 265.42132568359 72 1 delete
10:50:26 51.753755 39.189528 8 180.34302165425 0 265.42132568359 72 1 delete
10:50:14 51.753755 39.189528 12 180.1664192451 0 265.42132568359 72 1 delete
10:50:02 51.753755 39.189528 8 180.15512162753 0 265.42132568359 72 1 delete
10:49:50 51.753755 39.189528 12 180.32400249657 0 265.42132568359 72 1 delete
10:49:38 51.753755 39.189528 16 180.44177688178 0 265.42132568359 72 1 delete
10:49:26 51.753755 39.189528 6 180.82559857675 0 265.42132568359 72 1 delete
10:49:14 51.753755 39.189528 12 180.99642295139 0 265.42132568359 72 1 delete
10:49:02 51.753755 39.189528 12 180.55541673511 0 265.42132568359 72 1 delete
10:48:50 51.753755 39.189528 12 180.11268635834 0 265.42132568359 72 1 delete
10:48:38 51.753755 39.189528 12 179.7919732605 0 265.42132568359 72 1 delete
10:48:26 51.753755 39.189528 6 179.56410993255 0 265.42132568359 72 1 delete
10:48:14 51.753755 39.189528 12 179.09009697409 0 265.42132568359 72 1 delete
10:48:02 51.753755 39.189528 16 178.66039208843 0 265.42132568359 72 1 delete
10:47:50 51.753755 39.189528 6 178.39239841867 0 265.42132568359 72 1 delete
10:47:38 51.753755 39.189528 6 178.1942039784 0 265.42132568359 72 1 delete
10:47:29 51.753755 39.189528 8 177.98590213339 0 265.42132568359 72 1 delete
10:47:17 51.753755 39.189528 12 177.80803819563 0 265.42132568359 72 1 delete
10:47:05 51.753755 39.189528 8 178.10487311936 0 265.42132568359 72 1 delete
10:46:53 51.753755 39.189528 12 178.18902004124 0 265.42132568359 72 1 delete
10:46:41 51.753755 39.189528 16 178.39557663392 0 265.42132568359 72 1 delete
10:46:29 51.753755 39.189528 12 178.1163554839 0 265.42132568359 72 1 delete
10:46:17 51.753755 39.189528 8 178.2351232979 0 265.42132568359 72 1 delete
10:46:05 51.753755 39.189528 4 178.5180148413 0 265.42132568359 72 1 delete
10:45:53 51.753755 39.189528 6 178.90703486744 0 265.42132568359 76 1 delete
10:45:41 51.753755 39.189528 12 179.20430077421 0 265.42132568359 76 1 delete
10:45:29 51.753755 39.189528 16 179.60155374112 0 265.42132568359 76 1 delete
10:45:17 51.753755 39.189528 12 179.72925265142 0 265.42132568359 76 1 delete
10:45:05 51.753755 39.189528 8 179.80744562374 0 265.42132568359 76 1 delete
10:44:53 51.753755 39.189528 12 179.7899948998 0 265.42132568359 76 1 delete
10:44:41 51.753755 39.189528 12 179.61335876985 0 265.42132568359 76 1 delete
10:44:29 51.753755 39.189528 12 179.59077174407 0 265.42132568359 76 1 delete
10:44:17 51.753755 39.189528 16 179.93488220946 0 265.42132568359 76 1 delete
10:44:05 51.753764 39.189538 12 180.65557225825 0 329.55026245117 76 1 delete
10:43:53 51.753764 39.189538 6 180.9145142818 0 329.55026245117 76 1 delete
10:43:41 51.753764 39.189538 16 180.86140407448 0 329.55026245117 76 1 delete